In Rescue
 
Open Full Screen Window  High Contrast Mode
Wind Gusting 15 knots
09
October 25, 2021 5:19 PM EDT
Weather Information
Wind Direction
  010 °
Wind Speed
  09 kt (10 mph)
Wind Gust
  15 kt (17 mph)
Altimeter
29.91 in
Visibility
10 SM
Temperature
09° C
48° F
Dewpoint
05° C
41° F
Humidity
76%
Sky Condition
Overcast @ 2,500 ft
MVFR

METAR KLWA 252119Z AUTO 01009G15KT 10SM OVC025 09/05 A2991 RMK AO2 T00900054

FAA Disclaimer: The data displayed is for advisory purposes only and is not to be used for flight planning or operations.